sensor_id;sensor_type;location;lat;lon;timestamp;P1;durP1;ratioP1;P2;durP2;ratioP2
14907;SDS011;7545;52.092;7.006;2023-04-01T00:01:36;1.98;;;1.10;;
14907;SDS011;7545;52.092;7.006;2023-04-01T00:04:01;4.63;;;1.70;;
14907;SDS011;7545;52.092;7.006;2023-04-01T00:06:27;1.50;;;1.00;;
14907;SDS011;7545;52.092;7.006;2023-04-01T00:08:59;4.60;;;1.33;;
14907;SDS011;7545;52.092;7.006;2023-04-01T00:11:28;2.10;;;1.20;;
14907;SDS011;7545;52.092;7.006;2023-04-01T00:13:53;2.35;;;1.15;;
14907;SDS011;7545;52.092;7.006;2023-04-01T00:16:19;3.47;;;1.70;;
14907;SDS011;7545;52.092;7.006;2023-04-01T00:18:45;2.15;;;1.40;;
14907;SDS011;7545;52.092;7.006;2023-04-01T00:21:12;2.90;;;1.55;;
14907;SDS011;7545;52.092;7.006;2023-04-01T00:23:38;1.77;;;1.50;;
14907;SDS011;7545;52.092;7.006;2023-04-01T00:26:03;3.40;;;1.30;;
14907;SDS011;7545;52.092;7.006;2023-04-01T00:28:30;2.53;;;1.30;;
14907;SDS011;7545;52.092;7.006;2023-04-01T00:30:56;1.40;;;1.30;;
14907;SDS011;7545;52.092;7.006;2023-04-01T00:33:21;2.70;;;1.30;;
14907;SDS011;7545;52.092;7.006;2023-04-01T00:35:47;2.65;;;1.30;;
14907;SDS011;7545;52.092;7.006;2023-04-01T00:38:13;1.98;;;1.20;;
14907;SDS011;7545;52.092;7.006;2023-04-01T00:40:40;2.75;;;1.52;;
14907;SDS011;7545;52.092;7.006;2023-04-01T00:43:14;3.13;;;1.20;;
14907;SDS011;7545;52.092;7.006;2023-04-01T00:45:44;2.13;;;1.20;;
14907;SDS011;7545;52.092;7.006;2023-04-01T00:48:33;2.28;;;1.63;;
14907;SDS011;7545;52.092;7.006;2023-04-01T00:51:01;3.42;;;1.42;;
14907;SDS011;7545;52.092;7.006;2023-04-01T00:53:37;1.42;;;1.13;;
14907;SDS011;7545;52.092;7.006;2023-04-01T00:56:13;2.17;;;1.35;;
14907;SDS011;7545;52.092;7.006;2023-04-01T00:58:42;1.88;;;1.25;;
14907;SDS011;7545;52.092;7.006;2023-04-01T01:01:11;3.05;;;1.23;;
14907;SDS011;7545;52.092;7.006;2023-04-01T01:03:37;2.55;;;1.42;;
14907;SDS011;7545;52.092;7.006;2023-04-01T01:12:29;3.03;;;1.05;;
14907;SDS011;7545;52.092;7.006;2023-04-01T01:17:40;1.73;;;1.13;;
14907;SDS011;7545;52.092;7.006;2023-04-01T01:26:49;1.55;;;1.15;;
14907;SDS011;7545;52.092;7.006;2023-04-01T01:29:03;1.10;;;1.05;;
14907;SDS011;7545;52.092;7.006;2023-04-01T01:31:56;2.63;;;1.45;;
14907;SDS011;7545;52.092;7.006;2023-04-01T01:35:20;1.13;;;1.00;;
14907;SDS011;7545;52.092;7.006;2023-04-01T01:37:39;2.25;;;1.33;;
14907;SDS011;7545;52.092;7.006;2023-04-01T01:40:07;1.55;;;1.27;;
14907;SDS011;7545;52.092;7.006;2023-04-01T01:42:37;1.23;;;1.13;;
14907;SDS011;7545;52.092;7.006;2023-04-01T01:45:05;1.80;;;1.38;;
14907;SDS011;7545;52.092;7.006;2023-04-01T01:47:34;0.90;;;0.80;;
14907;SDS011;7545;52.092;7.006;2023-04-01T01:50:00;1.10;;;0.98;;
14907;SDS011;7545;52.092;7.006;2023-04-01T01:52:28;2.42;;;1.00;;
14907;SDS011;7545;52.092;7.006;2023-04-01T01:54:55;1.13;;;0.90;;
14907;SDS011;7545;52.092;7.006;2023-04-01T01:57:26;2.25;;;1.00;;
14907;SDS011;7545;52.092;7.006;2023-04-01T02:00:04;1.10;;;1.00;;
14907;SDS011;7545;52.092;7.006;2023-04-01T02:02:39;1.45;;;0.98;;
14907;SDS011;7545;52.092;7.006;2023-04-01T02:05:06;1.40;;;0.88;;
14907;SDS011;7545;52.092;7.006;2023-04-01T02:07:35;1.10;;;1.00;;
14907;SDS011;7545;52.092;7.006;2023-04-01T02:10:02;1.70;;;1.17;;
14907;SDS011;7545;52.092;7.006;2023-04-01T02:12:35;0.80;;;0.80;;
14907;SDS011;7545;52.092;7.006;2023-04-01T02:15:06;1.60;;;1.27;;
14907;SDS011;7545;52.092;7.006;2023-04-01T02:17:35;2.13;;;1.10;;
14907;SDS011;7545;52.092;7.006;2023-04-01T02:20:08;1.35;;;1.00;;
14907;SDS011;7545;52.092;7.006;2023-04-01T02:22:39;1.10;;;1.00;;
14907;SDS011;7545;52.092;7.006;2023-04-01T02:25:09;1.48;;;1.30;;
14907;SDS011;7545;52.092;7.006;2023-04-01T02:27:41;2.10;;;1.00;;
14907;SDS011;7545;52.092;7.006;2023-04-01T02:30:09;1.20;;;1.10;;
14907;SDS011;7545;52.092;7.006;2023-04-01T02:32:36;1.05;;;0.95;;
14907;SDS011;7545;52.092;7.006;2023-04-01T02:35:05;3.25;;;1.10;;
14907;SDS011;7545;52.092;7.006;2023-04-01T02:37:41;1.23;;;1.10;;
14907;SDS011;7545;52.092;7.006;2023-04-01T02:40:09;1.17;;;1.08;;
14907;SDS011;7545;52.092;7.006;2023-04-01T02:42:37;1.20;;;1.08;;
14907;SDS011;7545;52.092;7.006;2023-04-01T02:45:03;1.20;;;0.90;;
14907;SDS011;7545;52.092;7.006;2023-04-01T02:47:30;1.40;;;1.00;;
14907;SDS011;7545;52.092;7.006;2023-04-01T02:49:56;1.58;;;1.02;;
14907;SDS011;7545;52.092;7.006;2023-04-01T02:52:24;1.75;;;1.00;;
14907;SDS011;7545;52.092;7.006;2023-04-01T02:54:50;1.40;;;1.08;;
14907;SDS011;7545;52.092;7.006;2023-04-01T02:57:16;1.35;;;1.23;;
14907;SDS011;7545;52.092;7.006;2023-04-01T02:59:41;1.25;;;1.15;;
14907;SDS011;7545;52.092;7.006;2023-04-01T03:02:07;0.77;;;0.77;;
14907;SDS011;7545;52.092;7.006;2023-04-01T03:04:33;0.95;;;0.95;;
14907;SDS011;7545;52.092;7.006;2023-04-01T03:06:58;1.30;;;0.90;;
14907;SDS011;7545;52.092;7.006;2023-04-01T03:09:24;1.38;;;1.05;;
14907;SDS011;7545;52.092;7.006;2023-04-01T03:11:49;2.95;;;1.00;;
14907;SDS011;7545;52.092;7.006;2023-04-01T03:14:15;1.15;;;0.73;;
14907;SDS011;7545;52.092;7.006;2023-04-01T03:16:40;1.27;;;0.90;;
14907;SDS011;7545;52.092;7.006;2023-04-01T03:19:06;1.45;;;0.90;;
14907;SDS011;7545;52.092;7.006;2023-04-01T03:21:32;1.40;;;1.20;;
14907;SDS011;7545;52.092;7.006;2023-04-01T03:23:57;1.10;;;0.95;;
14907;SDS011;7545;52.092;7.006;2023-04-01T03:26:23;0.85;;;0.82;;
14907;SDS011;7545;52.092;7.006;2023-04-01T03:28:51;1.70;;;1.08;;
14907;SDS011;7545;52.092;7.006;2023-04-01T03:31:17;1.30;;;1.20;;
14907;SDS011;7545;52.092;7.006;2023-04-01T03:33:43;1.63;;;1.20;;
14907;SDS011;7545;52.092;7.006;2023-04-01T03:36:09;1.23;;;1.10;;
14907;SDS011;7545;52.092;7.006;2023-04-01T03:38:37;2.10;;;1.20;;
14907;SDS011;7545;52.092;7.006;2023-04-01T03:41:03;0.85;;;0.85;;
14907;SDS011;7545;52.092;7.006;2023-04-01T03:43:29;2.17;;;0.85;;
14907;SDS011;7545;52.092;7.006;2023-04-01T03:45:54;1.20;;;1.00;;
14907;SDS011;7545;52.092;7.006;2023-04-01T03:48:22;1.35;;;1.10;;
14907;SDS011;7545;52.092;7.006;2023-04-01T03:50:48;1.35;;;1.25;;
14907;SDS011;7545;52.092;7.006;2023-04-01T03:53:14;2.63;;;1.13;;
14907;SDS011;7545;52.092;7.006;2023-04-01T03:55:40;1.38;;;1.27;;
14907;SDS011;7545;52.092;7.006;2023-04-01T03:58:06;1.67;;;1.58;;
14907;SDS011;7545;52.092;7.006;2023-04-01T04:00:32;1.40;;;1.10;;
14907;SDS011;7545;52.092;7.006;2023-04-01T04:02:58;1.33;;;1.23;;
14907;SDS011;7545;52.092;7.006;2023-04-01T04:05:24;2.88;;;1.38;;
14907;SDS011;7545;52.092;7.006;2023-04-01T04:07:51;1.35;;;1.20;;
14907;SDS011;7545;52.092;7.006;2023-04-01T04:10:17;1.38;;;1.25;;
14907;SDS011;7545;52.092;7.006;2023-04-01T04:12:43;1.48;;;1.27;;
14907;SDS011;7545;52.092;7.006;2023-04-01T04:15:09;1.52;;;1.42;;
14907;SDS011;7545;52.092;7.006;2023-04-01T04:17:35;1.80;;;1.55;;
14907;SDS011;7545;52.092;7.006;2023-04-01T04:20:01;2.45;;;1.50;;
14907;SDS011;7545;52.092;7.006;2023-04-01T04:22:27;1.80;;;1.27;;
14907;SDS011;7545;52.092;7.006;2023-04-01T04:24:52;1.50;;;1.40;;
14907;SDS011;7545;52.092;7.006;2023-04-01T04:27:18;2.75;;;2.15;;
14907;SDS011;7545;52.092;7.006;2023-04-01T04:29:44;1.90;;;1.65;;
14907;SDS011;7545;52.092;7.006;2023-04-01T04:32:10;1.98;;;1.83;;
14907;SDS011;7545;52.092;7.006;2023-04-01T04:34:36;2.30;;;1.90;;
14907;SDS011;7545;52.092;7.006;2023-04-01T04:37:01;1.58;;;1.48;;
14907;SDS011;7545;52.092;7.006;2023-04-01T04:39:27;1.60;;;1.50;;
14907;SDS011;7545;52.092;7.006;2023-04-01T04:41:53;1.90;;;1.48;;
14907;SDS011;7545;52.092;7.006;2023-04-01T04:44:18;1.40;;;1.30;;
14907;SDS011;7545;52.092;7.006;2023-04-01T04:46:44;1.70;;;1.60;;
14907;SDS011;7545;52.092;7.006;2023-04-01T04:49:10;2.95;;;1.63;;
14907;SDS011;7545;52.092;7.006;2023-04-01T04:51:35;2.03;;;1.65;;
14907;SDS011;7545;52.092;7.006;2023-04-01T04:54:02;1.67;;;1.58;;
14907;SDS011;7545;52.092;7.006;2023-04-01T04:56:28;2.00;;;1.60;;
14907;SDS011;7545;52.092;7.006;2023-04-01T04:58:54;2.13;;;1.92;;
14907;SDS011;7545;52.092;7.006;2023-04-01T05:01:20;1.92;;;1.63;;
14907;SDS011;7545;52.092;7.006;2023-04-01T05:03:45;3.05;;;2.40;;
14907;SDS011;7545;52.092;7.006;2023-04-01T05:06:13;2.53;;;2.10;;
14907;SDS011;7545;52.092;7.006;2023-04-01T05:08:40;1.77;;;1.52;;
14907;SDS011;7545;52.092;7.006;2023-04-01T05:11:09;2.13;;;1.83;;
14907;SDS011;7545;52.092;7.006;2023-04-01T05:13:41;1.80;;;1.67;;
14907;SDS011;7545;52.092;7.006;2023-04-01T05:16:08;2.30;;;2.10;;
14907;SDS011;7545;52.092;7.006;2023-04-01T05:18:35;2.17;;;1.98;;
14907;SDS011;7545;52.092;7.006;2023-04-01T05:21:01;2.08;;;1.88;;
14907;SDS011;7545;52.092;7.006;2023-04-01T05:23:26;2.20;;;2.00;;
14907;SDS011;7545;52.092;7.006;2023-04-01T05:25:52;2.85;;;2.45;;
14907;SDS011;7545;52.092;7.006;2023-04-01T05:28:22;2.20;;;1.90;;
14907;SDS011;7545;52.092;7.006;2023-04-01T05:30:47;2.30;;;1.88;;
14907;SDS011;7545;52.092;7.006;2023-04-01T05:33:13;2.53;;;1.90;;
14907;SDS011;7545;52.092;7.006;2023-04-01T05:35:39;2.17;;;1.98;;
14907;SDS011;7545;52.092;7.006;2023-04-01T05:38:06;2.53;;;2.25;;
14907;SDS011;7545;52.092;7.006;2023-04-01T05:40:31;2.33;;;2.10;;
14907;SDS011;7545;52.092;7.006;2023-04-01T05:42:58;2.88;;;2.13;;
14907;SDS011;7545;52.092;7.006;2023-04-01T05:45:24;2.70;;;2.33;;
14907;SDS011;7545;52.092;7.006;2023-04-01T05:47:50;4.97;;;2.22;;
14907;SDS011;7545;52.092;7.006;2023-04-01T05:50:15;2.45;;;2.25;;
14907;SDS011;7545;52.092;7.006;2023-04-01T05:52:41;2.90;;;2.40;;
14907;SDS011;7545;52.092;7.006;2023-04-01T05:55:07;2.17;;;1.98;;
14907;SDS011;7545;52.092;7.006;2023-04-01T05:57:33;2.47;;;2.22;;
14907;SDS011;7545;52.092;7.006;2023-04-01T05:59:59;2.70;;;2.05;;
14907;SDS011;7545;52.092;7.006;2023-04-01T06:02:25;2.15;;;1.95;;
14907;SDS011;7545;52.092;7.006;2023-04-01T06:04:53;3.40;;;2.58;;
14907;SDS011;7545;52.092;7.006;2023-04-01T06:07:27;3.10;;;2.25;;
14907;SDS011;7545;52.092;7.006;2023-04-01T06:09:53;5.22;;;2.72;;
14907;SDS011;7545;52.092;7.006;2023-04-01T06:12:26;2.58;;;2.38;;
14907;SDS011;7545;52.092;7.006;2023-04-01T06:15:25;2.90;;;2.60;;
14907;SDS011;7545;52.092;7.006;2023-04-01T06:23:57;2.92;;;2.40;;
14907;SDS011;7545;52.092;7.006;2023-04-01T06:31:45;3.30;;;2.40;;
14907;SDS011;7545;52.092;7.006;2023-04-01T06:40:36;4.20;;;2.60;;
14907;SDS011;7545;52.092;7.006;2023-04-01T06:43:22;2.97;;;2.55;;
14907;SDS011;7545;52.092;7.006;2023-04-01T06:51:39;3.33;;;2.63;;
14907;SDS011;7545;52.092;7.006;2023-04-01T06:54:18;3.00;;;2.70;;
14907;SDS011;7545;52.092;7.006;2023-04-01T06:56:49;3.80;;;3.15;;
14907;SDS011;7545;52.092;7.006;2023-04-01T06:59:32;3.45;;;2.95;;
14907;SDS011;7545;52.092;7.006;2023-04-01T07:05:08;3.67;;;2.60;;
14907;SDS011;7545;52.092;7.006;2023-04-01T07:07:41;4.47;;;2.70;;
14907;SDS011;7545;52.092;7.006;2023-04-01T07:10:22;3.17;;;2.85;;
14907;SDS011;7545;52.092;7.006;2023-04-01T07:12:55;3.45;;;2.85;;
14907;SDS011;7545;52.092;7.006;2023-04-01T07:15:28;4.05;;;3.17;;
14907;SDS011;7545;52.092;7.006;2023-04-01T07:18:16;4.28;;;3.65;;
14907;SDS011;7545;52.092;7.006;2023-04-01T07:20:46;3.25;;;2.55;;
14907;SDS011;7545;52.092;7.006;2023-04-01T07:23:20;2.97;;;2.67;;
14907;SDS011;7545;52.092;7.006;2023-04-01T07:25:53;2.92;;;2.28;;
14907;SDS011;7545;52.092;7.006;2023-04-01T07:28:23;3.65;;;2.72;;
14907;SDS011;7545;52.092;7.006;2023-04-01T07:33:31;3.15;;;2.53;;
14907;SDS011;7545;52.092;7.006;2023-04-01T07:49:52;2.70;;;1.92;;
14907;SDS011;7545;52.092;7.006;2023-04-01T07:52:44;2.95;;;2.53;;
14907;SDS011;7545;52.092;7.006;2023-04-01T07:57:57;2.22;;;1.73;;
14907;SDS011;7545;52.092;7.006;2023-04-01T08:00:30;1.83;;;1.73;;
14907;SDS011;7545;52.092;7.006;2023-04-01T08:03:12;2.70;;;2.13;;
14907;SDS011;7545;52.092;7.006;2023-04-01T08:16:33;1.90;;;1.73;;
14907;SDS011;7545;52.092;7.006;2023-04-01T08:19:14;1.52;;;1.42;;
14907;SDS011;7545;52.092;7.006;2023-04-01T08:21:51;2.00;;;1.75;;
14907;SDS011;7545;52.092;7.006;2023-04-01T08:27:09;1.50;;;1.33;;
14907;SDS011;7545;52.092;7.006;2023-04-01T08:32:36;1.38;;;1.27;;
14907;SDS011;7545;52.092;7.006;2023-04-01T08:35:14;1.65;;;1.45;;
14907;SDS011;7545;52.092;7.006;2023-04-01T08:37:56;1.98;;;1.67;;
14907;SDS011;7545;52.092;7.006;2023-04-01T08:54:53;1.67;;;1.48;;
14907;SDS011;7545;52.092;7.006;2023-04-01T09:03:49;2.22;;;1.60;;
14907;SDS011;7545;52.092;7.006;2023-04-01T09:08:48;1.90;;;1.58;;
14907;SDS011;7545;52.092;7.006;2023-04-01T09:11:33;2.95;;;1.67;;
14907;SDS011;7545;52.092;7.006;2023-04-01T09:14:23;1.55;;;1.25;;
14907;SDS011;7545;52.092;7.006;2023-04-01T09:25:48;1.60;;;1.50;;
14907;SDS011;7545;52.092;7.006;2023-04-01T09:28:20;2.10;;;1.60;;
14907;SDS011;7545;52.092;7.006;2023-04-01T09:41:35;1.67;;;1.40;;
14907;SDS011;7545;52.092;7.006;2023-04-01T10:04:20;1.50;;;1.40;;
14907;SDS011;7545;52.092;7.006;2023-04-01T10:12:24;2.20;;;1.73;;
14907;SDS011;7545;52.092;7.006;2023-04-01T10:51:46;1.38;;;1.10;;
14907;SDS011;7545;52.092;7.006;2023-04-01T10:55:00;1.20;;;1.02;;
14907;SDS011;7545;52.092;7.006;2023-04-01T11:15:18;0.68;;;0.47;;
14907;SDS011;7545;52.092;7.006;2023-04-01T11:33:33;1.85;;;1.38;;
14907;SDS011;7545;52.092;7.006;2023-04-01T11:36:15;1.88;;;1.60;;
14907;SDS011;7545;52.092;7.006;2023-04-01T11:41:52;1.70;;;1.38;;
14907;SDS011;7545;52.092;7.006;2023-04-01T11:44:42;1.20;;;1.10;;
14907;SDS011;7545;52.092;7.006;2023-04-01T11:50:38;1.20;;;1.10;;
14907;SDS011;7545;52.092;7.006;2023-04-01T11:56:27;1.50;;;1.30;;
14907;SDS011;7545;52.092;7.006;2023-04-01T11:59:05;0.88;;;0.77;;
14907;SDS011;7545;52.092;7.006;2023-04-01T12:07:17;1.55;;;1.10;;
14907;SDS011;7545;52.092;7.006;2023-04-01T12:12:49;0.60;;;0.60;;
14907;SDS011;7545;52.092;7.006;2023-04-01T12:15:33;1.40;;;1.00;;
14907;SDS011;7545;52.092;7.006;2023-04-01T12:21:08;1.10;;;1.00;;
14907;SDS011;7545;52.092;7.006;2023-04-01T12:46:44;0.98;;;0.90;;
14907;SDS011;7545;52.092;7.006;2023-04-01T12:49:22;0.70;;;0.70;;
14907;SDS011;7545;52.092;7.006;2023-04-01T13:00:27;0.90;;;0.88;;
14907;SDS011;7545;52.092;7.006;2023-04-01T13:14:35;1.00;;;0.93;;
14907;SDS011;7545;52.092;7.006;2023-04-01T13:25:27;1.40;;;1.30;;
14907;SDS011;7545;52.092;7.006;2023-04-01T13:28:13;1.30;;;1.20;;
14907;SDS011;7545;52.092;7.006;2023-04-01T13:30:45;1.55;;;1.42;;
14907;SDS011;7545;52.092;7.006;2023-04-01T13:33:23;2.28;;;1.40;;
14907;SDS011;7545;52.092;7.006;2023-04-01T13:36:12;1.55;;;1.38;;
14907;SDS011;7545;52.092;7.006;2023-04-01T13:38:52;1.95;;;1.75;;
14907;SDS011;7545;52.092;7.006;2023-04-01T13:44:12;1.65;;;1.55;;
14907;SDS011;7545;52.092;7.006;2023-04-01T13:46:54;1.45;;;1.35;;
14907;SDS011;7545;52.092;7.006;2023-04-01T13:49:53;3.53;;;1.20;;
14907;SDS011;7545;52.092;7.006;2023-04-01T14:01:42;1.58;;;1.48;;
14907;SDS011;7545;52.092;7.006;2023-04-01T14:07:18;1.73;;;1.35;;
14907;SDS011;7545;52.092;7.006;2023-04-01T14:12:46;2.03;;;1.83;;
14907;SDS011;7545;52.092;7.006;2023-04-01T14:17:57;1.67;;;1.58;;
14907;SDS011;7545;52.092;7.006;2023-04-01T14:20:28;1.35;;;1.13;;
14907;SDS011;7545;52.092;7.006;2023-04-01T14:32:06;1.30;;;1.20;;
14907;SDS011;7545;52.092;7.006;2023-04-01T14:40:19;1.38;;;1.27;;
14907;SDS011;7545;52.092;7.006;2023-04-01T14:51:16;1.60;;;1.50;;
14907;SDS011;7545;52.092;7.006;2023-04-01T14:56:40;2.35;;;1.40;;
14907;SDS011;7545;52.092;7.006;2023-04-01T15:12:17;1.52;;;1.42;;
14907;SDS011;7545;52.092;7.006;2023-04-01T15:18:09;1.25;;;1.15;;
14907;SDS011;7545;52.092;7.006;2023-04-01T15:23:58;1.85;;;1.13;;
14907;SDS011;7545;52.092;7.006;2023-04-01T15:32:17;1.25;;;1.15;;
14907;SDS011;7545;52.092;7.006;2023-04-01T15:34:59;1.17;;;1.08;;
14907;SDS011;7545;52.092;7.006;2023-04-01T15:40:28;1.38;;;1.27;;
14907;SDS011;7545;52.092;7.006;2023-04-01T15:46:08;1.38;;;1.27;;
14907;SDS011;7545;52.092;7.006;2023-04-01T15:48:40;1.08;;;0.98;;
14907;SDS011;7545;52.092;7.006;2023-04-01T15:51:15;1.35;;;1.25;;
14907;SDS011;7545;52.092;7.006;2023-04-01T15:53:56;2.08;;;1.30;;
14907;SDS011;7545;52.092;7.006;2023-04-01T16:05:10;1.70;;;1.40;;
14907;SDS011;7545;52.092;7.006;2023-04-01T16:13:54;1.08;;;0.98;;
14907;SDS011;7545;52.092;7.006;2023-04-01T16:22:32;1.02;;;0.80;;
14907;SDS011;7545;52.092;7.006;2023-04-01T16:30:46;0.60;;;0.60;;
14907;SDS011;7545;52.092;7.006;2023-04-01T16:33:31;1.48;;;1.13;;
14907;SDS011;7545;52.092;7.006;2023-04-01T16:36:01;1.00;;;0.73;;
14907;SDS011;7545;52.092;7.006;2023-04-01T16:41:36;0.77;;;0.77;;
14907;SDS011;7545;52.092;7.006;2023-04-01T16:46:49;1.75;;;0.88;;
14907;SDS011;7545;52.092;7.006;2023-04-01T16:49:29;1.20;;;1.10;;
14907;SDS011;7545;52.092;7.006;2023-04-01T16:52:36;1.00;;;0.90;;
14907;SDS011;7545;52.092;7.006;2023-04-01T16:55:35;1.50;;;0.90;;
14907;SDS011;7545;52.092;7.006;2023-04-01T16:58:35;0.70;;;0.70;;
14907;SDS011;7545;52.092;7.006;2023-04-01T17:01:20;0.88;;;0.63;;
14907;SDS011;7545;52.092;7.006;2023-04-01T17:03:52;0.88;;;0.88;;
14907;SDS011;7545;52.092;7.006;2023-04-01T17:06:37;0.73;;;0.70;;
14907;SDS011;7545;52.092;7.006;2023-04-01T17:14:54;0.50;;;0.50;;
14907;SDS011;7545;52.092;7.006;2023-04-01T17:20:29;0.50;;;0.50;;
14907;SDS011;7545;52.092;7.006;2023-04-01T17:23:01;1.73;;;0.50;;
14907;SDS011;7545;52.092;7.006;2023-04-01T17:50:22;0.52;;;0.38;;
14907;SDS011;7545;52.092;7.006;2023-04-01T17:58:21;1.83;;;1.45;;
14907;SDS011;7545;52.092;7.006;2023-04-01T18:23:22;1.55;;;1.08;;
14907;SDS011;7545;52.092;7.006;2023-04-01T18:26:01;0.90;;;0.70;;
14907;SDS011;7545;52.092;7.006;2023-04-01T18:39:03;0.60;;;0.45;;
14907;SDS011;7545;52.092;7.006;2023-04-01T18:41:36;0.75;;;0.70;;
14907;SDS011;7545;52.092;7.006;2023-04-01T18:52:44;0.60;;;0.60;;
14907;SDS011;7545;52.092;7.006;2023-04-01T18:57:51;2.83;;;0.43;;
14907;SDS011;7545;52.092;7.006;2023-04-01T19:00:26;0.50;;;0.45;;
14907;SDS011;7545;52.092;7.006;2023-04-01T19:03:00;0.68;;;0.52;;
14907;SDS011;7545;52.092;7.006;2023-04-01T19:05:39;1.08;;;0.60;;
14907;SDS011;7545;52.092;7.006;2023-04-01T19:14:08;0.90;;;0.90;;
14907;SDS011;7545;52.092;7.006;2023-04-01T19:22:13;0.77;;;0.70;;
14907;SDS011;7545;52.092;7.006;2023-04-01T19:28:20;0.68;;;0.68;;
14907;SDS011;7545;52.092;7.006;2023-04-01T19:30:55;0.60;;;0.60;;
14907;SDS011;7545;52.092;7.006;2023-04-01T19:36:23;2.45;;;0.80;;
14907;SDS011;7545;52.092;7.006;2023-04-01T19:53:01;0.75;;;0.70;;
14907;SDS011;7545;52.092;7.006;2023-04-01T19:58:45;0.70;;;0.65;;
14907;SDS011;7545;52.092;7.006;2023-04-01T20:04:25;1.08;;;0.70;;
14907;SDS011;7545;52.092;7.006;2023-04-01T20:07:08;1.77;;;0.68;;
14907;SDS011;7545;52.092;7.006;2023-04-01T20:12:43;0.85;;;0.82;;
14907;SDS011;7545;52.092;7.006;2023-04-01T20:18:03;1.10;;;0.90;;
14907;SDS011;7545;52.092;7.006;2023-04-01T20:20:57;0.63;;;0.60;;
14907;SDS011;7545;52.092;7.006;2023-04-01T20:23:44;1.02;;;0.93;;
14907;SDS011;7545;52.092;7.006;2023-04-01T20:26:23;1.02;;;0.90;;
14907;SDS011;7545;52.092;7.006;2023-04-01T20:29:04;0.85;;;0.82;;
14907;SDS011;7545;52.092;7.006;2023-04-01T20:31:57;1.08;;;0.95;;
14907;SDS011;7545;52.092;7.006;2023-04-01T20:40:41;0.90;;;0.90;;
14907;SDS011;7545;52.092;7.006;2023-04-01T20:51:26;1.55;;;1.45;;
14907;SDS011;7545;52.092;7.006;2023-04-01T20:57:09;1.20;;;1.10;;
14907;SDS011;7545;52.092;7.006;2023-04-01T21:05:58;1.02;;;0.82;;
14907;SDS011;7545;52.092;7.006;2023-04-01T21:08:53;1.42;;;1.15;;
14907;SDS011;7545;52.092;7.006;2023-04-01T21:11:53;1.75;;;1.42;;
14907;SDS011;7545;52.092;7.006;2023-04-01T21:14:44;1.60;;;1.50;;
14907;SDS011;7545;52.092;7.006;2023-04-01T21:28:42;1.50;;;1.07;;
14907;SDS011;7545;52.092;7.006;2023-04-01T21:37:27;1.33;;;1.00;;
14907;SDS011;7545;52.092;7.006;2023-04-01T21:43:04;1.20;;;1.10;;
14907;SDS011;7545;52.092;7.006;2023-04-01T21:46:05;1.40;;;1.10;;
14907;SDS011;7545;52.092;7.006;2023-04-01T21:49:01;0.93;;;0.87;;
14907;SDS011;7545;52.092;7.006;2023-04-01T22:07:52;1.60;;;1.43;;
14907;SDS011;7545;52.092;7.006;2023-04-01T22:10:30;1.10;;;1.00;;
14907;SDS011;7545;52.092;7.006;2023-04-01T22:26:23;1.10;;;1.00;;
14907;SDS011;7545;52.092;7.006;2023-04-01T22:29:20;1.23;;;1.13;;
14907;SDS011;7545;52.092;7.006;2023-04-01T22:32:00;1.43;;;1.30;;
14907;SDS011;7545;52.092;7.006;2023-04-01T22:34:51;1.43;;;1.30;;
14907;SDS011;7545;52.092;7.006;2023-04-01T22:40:00;1.60;;;1.50;;
14907;SDS011;7545;52.092;7.006;2023-04-01T22:42:48;1.90;;;1.50;;
14907;SDS011;7545;52.092;7.006;2023-04-01T22:56:40;2.57;;;1.73;;
14907;SDS011;7545;52.092;7.006;2023-04-01T22:59:24;1.63;;;1.30;;
14907;SDS011;7545;52.092;7.006;2023-04-01T23:02:17;1.73;;;1.47;;
14907;SDS011;7545;52.092;7.006;2023-04-01T23:04:48;1.67;;;1.23;;
14907;SDS011;7545;52.092;7.006;2023-04-01T23:07:33;1.30;;;1.20;;
14907;SDS011;7545;52.092;7.006;2023-04-01T23:13:18;1.20;;;1.10;;
14907;SDS011;7545;52.092;7.006;2023-04-01T23:15:50;1.70;;;1.27;;
14907;SDS011;7545;52.092;7.006;2023-04-01T23:20:54;2.67;;;1.70;;
14907;SDS011;7545;52.092;7.006;2023-04-01T23:24:00;2.07;;;1.53;;
14907;SDS011;7545;52.092;7.006;2023-04-01T23:26:42;2.47;;;1.70;;
14907;SDS011;7545;52.092;7.006;2023-04-01T23:29:19;1.77;;;1.50;;
14907;SDS011;7545;52.092;7.006;2023-04-01T23:31:47;3.27;;;1.50;;
14907;SDS011;7545;52.092;7.006;2023-04-01T23:34:22;1.70;;;1.47;;
14907;SDS011;7545;52.092;7.006;2023-04-01T23:36:52;3.07;;;1.60;;
14907;SDS011;7545;52.092;7.006;2023-04-01T23:39:28;2.27;;;1.30;;
14907;SDS011;7545;52.092;7.006;2023-04-01T23:42:05;2.03;;;1.70;;
14907;SDS011;7545;52.092;7.006;2023-04-01T23:44:44;2.50;;;1.63;;
14907;SDS011;7545;52.092;7.006;2023-04-01T23:47:15;1.67;;;1.57;;
14907;SDS011;7545;52.092;7.006;2023-04-01T23:49:48;2.60;;;1.60;;
14907;SDS011;7545;52.092;7.006;2023-04-01T23:52:39;1.67;;;1.57;;
14907;SDS011;7545;52.092;7.006;2023-04-01T23:57:36;1.80;;;1.57;;
